Time;durP1;ratioP1;P1;durP2;ratioP2;P2;SDS_P1;SDS_P2;PMS_P1;PMS_P2;Temp;Humidity;BMP_temperature;BMP_pressure;BME280_temperature;BME280_humidity;BME280_pressure;Samples;Min_cycle;Max_cycle;Signal;HPM_P1;HPM_P2
2023/10/25 00:00:38;;;;;;;10.55;8.15;;;8.30;99.90;;;;;;5029493;28;20096;-60
2023/10/25 00:03:04;;;;;;;9.95;7.40;;;8.30;99.90;;;;;;5029351;28;20079;-58
2023/10/25 00:05:33;;;;;;;8.65;6.50;;;8.30;99.90;;;;;;5029581;28;20052;-60
2023/10/25 00:07:58;;;;;;;10.40;7.60;;;8.30;99.90;;;;;;5030372;28;20024;-61
2023/10/25 00:10:24;;;;;;;8.98;7.78;;;8.20;99.90;;;;;;5029387;28;20124;-60
2023/10/25 00:12:50;;;;;;;10.98;8.32;;;8.20;99.90;;;;;;5029879;28;20069;-62
2023/10/25 00:15:15;;;;;;;8.77;7.85;;;8.20;99.90;;;;;;5029321;28;20037;-61
2023/10/25 00:17:41;;;;;;;9.63;7.97;;;8.10;99.90;;;;;;5029270;28;20055;-59
2023/10/25 00:20:07;;;;;;;10.27;7.80;;;8.10;99.90;;;;;;5028642;28;20137;-61
2023/10/25 00:22:32;;;;;;;13.45;9.23;;;8.00;99.90;;;;;;5023086;28;20033;-58
2023/10/25 00:24:58;;;;;;;9.93;8.05;;;8.00;99.90;;;;;;5028164;28;20032;-60
2023/10/25 00:27:23;;;;;;;8.88;7.05;;;8.00;99.90;;;;;;5028125;28;20111;-59
2023/10/25 00:29:49;;;;;;;10.98;8.00;;;8.00;99.90;;;;;;5029145;28;20409;-60
2023/10/25 00:32:14;;;;;;;11.95;8.30;;;8.00;99.90;;;;;;5024356;28;20413;-58
2023/10/25 00:34:41;;;;;;;10.68;8.32;;;8.00;99.90;;;;;;5029472;28;20041;-60
2023/10/25 00:37:06;;;;;;;8.25;7.13;;;7.90;99.90;;;;;;5028430;28;20044;-61
2023/10/25 00:39:32;;;;;;;10.98;8.23;;;7.90;99.90;;;;;;5028883;28;20034;-60
2023/10/25 00:41:57;;;;;;;10.23;7.75;;;7.90;99.90;;;;;;5029105;28;20029;-59
2023/10/25 00:44:23;;;;;;;11.15;8.63;;;7.90;99.90;;;;;;5028726;28;20096;-59
2023/10/25 00:46:49;;;;;;;10.98;7.72;;;7.90;99.90;;;;;;5023157;28;20033;-58
2023/10/25 00:49:16;;;;;;;13.13;8.45;;;7.90;99.90;;;;;;5027942;28;20044;-61
2023/10/25 00:51:42;;;;;;;12.88;9.90;;;7.90;99.90;;;;;;5024131;28;20022;-62
2023/10/25 00:54:08;;;;;;;12.20;9.40;;;7.80;99.90;;;;;;5034581;28;20082;-61
2023/10/25 00:56:34;;;;;;;10.68;7.53;;;7.80;99.90;;;;;;5025825;28;20025;-60
2023/10/25 00:59:00;;;;;;;10.65;8.68;;;7.80;99.90;;;;;;5030830;28;20033;-60
2023/10/25 01:01:28;;;;;;;13.48;9.73;;;7.80;99.90;;;;;;5025588;28;20028;-60
2023/10/25 01:03:54;;;;;;;14.25;9.55;;;7.80;99.90;;;;;;5026102;28;20025;-60
2023/10/25 01:06:21;;;;;;;15.35;9.75;;;7.70;99.90;;;;;;5027104;28;20171;-60
2023/10/25 01:08:47;;;;;;;11.57;9.35;;;7.70;99.90;;;;;;5026245;28;20766;-61
2023/10/25 01:11:12;;;;;;;15.43;9.88;;;7.70;99.90;;;;;;5026716;28;20048;-61
2023/10/25 01:13:38;;;;;;;12.70;8.75;;;7.70;99.90;;;;;;5026811;28;20021;-61
2023/10/25 01:16:04;;;;;;;13.63;9.68;;;7.60;99.90;;;;;;5027470;28;20544;-60
2023/10/25 01:18:30;;;;;;;13.73;9.70;;;7.60;99.90;;;;;;5025554;28;20025;-59
2023/10/25 01:20:55;;;;;;;15.30;9.68;;;7.60;99.90;;;;;;5026139;28;20724;-60
2023/10/25 01:23:21;;;;;;;14.18;9.80;;;7.50;99.90;;;;;;5022822;28;20068;-60
2023/10/25 01:25:47;;;;;;;11.20;8.52;;;7.50;99.90;;;;;;5026353;28;20477;-61
2023/10/25 01:28:13;;;;;;;11.32;9.43;;;7.50;99.90;;;;;;5025516;28;20037;-61
2023/10/25 01:30:39;;;;;;;11.95;8.63;;;7.50;99.90;;;;;;5025691;28;20026;-61
2023/10/25 01:33:05;;;;;;;17.17;10.68;;;7.40;99.90;;;;;;5024491;28;20025;-61
2023/10/25 01:35:31;;;;;;;12.40;9.25;;;7.40;99.90;;;;;;5025986;28;20021;-61
2023/10/25 01:37:56;;;;;;;14.63;9.52;;;7.40;99.90;;;;;;5022983;28;20033;-61
2023/10/25 01:40:22;;;;;;;11.45;9.05;;;7.40;99.90;;;;;;5025864;28;20029;-60
2023/10/25 01:42:51;;;;;;;15.70;10.18;;;7.40;99.90;;;;;;5022885;28;20030;-58
2023/10/25 01:45:18;;;;;;;11.52;8.68;;;7.30;99.90;;;;;;5025394;28;20245;-61
2023/10/25 01:47:43;;;;;;;15.32;9.43;;;7.30;99.90;;;;;;5022451;28;20148;-61
2023/10/25 01:50:09;;;;;;;10.85;8.27;;;7.30;99.90;;;;;;5023618;28;20116;-61
2023/10/25 01:52:35;;;;;;;11.30;7.90;;;7.30;99.90;;;;;;5024568;28;20503;-59
2023/10/25 01:55:01;;;;;;;12.27;8.90;;;7.30;99.90;;;;;;5019219;28;20021;-61
2023/10/25 01:57:26;;;;;;;12.93;8.68;;;7.20;99.90;;;;;;5026152;28;20041;-59
2023/10/25 01:59:52;;;;;;;11.38;8.30;;;7.20;99.90;;;;;;5025284;28;20025;-59
2023/10/25 02:02:17;;;;;;;14.35;10.07;;;7.20;99.90;;;;;;5029254;28;20521;-61
2023/10/25 02:04:43;;;;;;;12.55;9.45;;;7.10;99.90;;;;;;5031889;28;20112;-61
2023/10/25 02:07:09;;;;;;;12.68;9.25;;;7.10;99.90;;;;;;5035962;28;20025;-59
2023/10/25 02:09:35;;;;;;;13.82;9.38;;;7.10;99.90;;;;;;5038199;28;20216;-60
2023/10/25 02:12:00;;;;;;;12.60;8.65;;;7.10;99.90;;;;;;5032412;28;20037;-59
2023/10/25 02:14:26;;;;;;;12.70;9.38;;;7.00;99.90;;;;;;5025762;28;20032;-61
2023/10/25 02:16:51;;;;;;;11.80;8.75;;;7.00;99.90;;;;;;5030697;28;20115;-59
2023/10/25 02:19:17;;;;;;;12.48;8.77;;;7.00;99.90;;;;;;5035196;28;20029;-60
2023/10/25 02:21:43;;;;;;;11.80;8.82;;;6.90;99.90;;;;;;5031089;28;20078;-60
2023/10/25 02:24:14;;;;;;;15.27;10.25;;;6.90;99.90;;;;;;5033372;28;20021;-59
2023/10/25 02:26:40;;;;;;;13.02;9.15;;;6.90;99.90;;;;;;5031375;28;20029;-61
2023/10/25 02:29:05;;;;;;;12.75;8.68;;;6.90;99.90;;;;;;5035277;28;20117;-60
2023/10/25 02:31:33;;;;;;;14.55;9.35;;;6.90;99.90;;;;;;5032203;28;20033;-61
2023/10/25 02:33:58;;;;;;;12.32;8.77;;;6.90;99.90;;;;;;5035735;28;20021;-61
2023/10/25 02:36:27;;;;;;;12.75;9.98;;;6.80;99.90;;;;;;5031657;28;20586;-60
2023/10/25 02:38:53;;;;;;;13.55;9.25;;;6.90;99.90;;;;;;5035088;28;20033;-61
2023/10/25 02:41:18;;;;;;;13.18;8.75;;;6.90;99.90;;;;;;5027185;28;20064;-60
2023/10/25 02:43:44;;;;;;;14.82;9.52;;;6.90;99.90;;;;;;5035267;28;20028;-61
2023/10/25 02:46:12;;;;;;;13.98;10.60;;;6.90;99.90;;;;;;5033049;28;20112;-59
2023/10/25 02:48:38;;;;;;;12.95;9.05;;;6.90;99.90;;;;;;5035047;28;20583;-61
2023/10/25 02:51:04;;;;;;;13.02;9.45;;;6.90;99.90;;;;;;5032281;28;20029;-59
2023/10/25 02:53:31;;;;;;;12.70;8.43;;;6.90;99.90;;;;;;5031424;28;20497;-61
2023/10/25 02:56:07;;;;;;;15.15;9.48;;;6.90;99.90;;;;;;5035223;28;20038;-61
2023/10/25 02:58:33;;;;;;;14.00;10.25;;;6.80;99.90;;;;;;5030262;28;20122;-58
2023/10/25 03:00:59;;;;;;;13.35;9.15;;;6.80;99.90;;;;;;5035690;28;20022;-61
2023/10/25 03:03:32;;;;;;;15.85;9.25;;;6.80;99.90;;;;;;5033096;28;20481;-61
2023/10/25 03:05:58;;;;;;;12.95;9.13;;;6.80;99.90;;;;;;5031784;28;20030;-61
2023/10/25 03:08:24;;;;;;;12.50;9.52;;;6.80;99.90;;;;;;5034395;28;20028;-61
2023/10/25 03:10:50;;;;;;;13.73;9.43;;;6.70;99.90;;;;;;5027055;28;20040;-61
2023/10/25 03:13:16;;;;;;;11.05;9.23;;;6.70;99.90;;;;;;5037839;28;20029;-61
2023/10/25 03:15:42;;;;;;;12.88;8.32;;;6.70;99.90;;;;;;5033605;28;20104;-59
2023/10/25 03:18:08;;;;;;;14.10;8.93;;;6.70;99.90;;;;;;5033927;28;20030;-61
2023/10/25 03:20:34;;;;;;;16.13;9.38;;;6.60;99.90;;;;;;5040728;28;20023;-60
2023/10/25 03:23:00;;;;;;;12.45;8.55;;;6.70;99.90;;;;;;5027737;28;20075;-60
2023/10/25 03:25:25;;;;;;;11.35;8.27;;;6.60;99.90;;;;;;5042136;28;20025;-61
2023/10/25 03:27:51;;;;;;;15.82;10.65;;;6.70;99.90;;;;;;5031041;28;20026;-61
2023/10/25 03:30:17;;;;;;;15.70;8.88;;;6.60;99.90;;;;;;5035181;28;20482;-61
2023/10/25 03:32:43;;;;;;;12.95;9.68;;;6.60;99.90;;;;;;5034867;28;20026;-60
2023/10/25 03:35:09;;;;;;;13.82;9.82;;;6.60;99.90;;;;;;5036373;28;20029;-61
2023/10/25 03:37:39;;;;;;;14.65;9.13;;;6.50;99.90;;;;;;5037580;28;20104;-61
2023/10/25 03:40:07;;;;;;;16.20;10.15;;;6.50;99.90;;;;;;5035422;28;20653;-60
2023/10/25 03:42:32;;;;;;;11.25;8.50;;;6.50;99.90;;;;;;5038128;28;20470;-61
2023/10/25 03:44:59;;;;;;;17.17;10.43;;;6.50;99.90;;;;;;5034000;28;20017;-61
2023/10/25 03:47:24;;;;;;;18.13;10.63;;;6.50;99.90;;;;;;5029124;28;20107;-61
2023/10/25 03:49:52;;;;;;;14.48;10.18;;;6.50;99.90;;;;;;5035423;28;20680;-59
2023/10/25 03:52:18;;;;;;;17.15;10.68;;;6.50;99.90;;;;;;5037173;28;20497;-60
2023/10/25 03:54:43;;;;;;;17.17;12.05;;;6.50;99.90;;;;;;5038535;28;20036;-60
2023/10/25 03:57:09;;;;;;;16.20;11.10;;;6.50;99.90;;;;;;5033441;28;20037;-60
2023/10/25 03:59:34;;;;;;;15.65;10.50;;;6.50;99.90;;;;;;5039554;28;20392;-61
2023/10/25 04:02:00;;;;;;;13.98;9.90;;;6.50;99.90;;;;;;5035934;28;20022;-60
2023/10/25 04:04:26;;;;;;;18.58;11.40;;;6.50;99.90;;;;;;5033779;28;20025;-57
2023/10/25 04:06:51;;;;;;;17.17;11.23;;;6.50;99.90;;;;;;5035920;28;20100;-61
2023/10/25 04:09:17;;;;;;;15.50;11.05;;;6.50;99.90;;;;;;5036522;28;20078;-59
2023/10/25 04:11:42;;;;;;;17.85;11.52;;;6.50;99.90;;;;;;5032965;28;20094;-61
2023/10/25 04:14:08;;;;;;;18.25;12.13;;;6.50;99.90;;;;;;5036060;28;20029;-61
2023/10/25 04:16:33;;;;;;;18.52;11.82;;;6.60;99.90;;;;;;5039214;28;20477;-61
2023/10/25 04:18:59;;;;;;;15.93;12.38;;;6.60;99.90;;;;;;5033183;28;20711;-62
2023/10/25 04:21:24;;;;;;;20.25;13.35;;;6.60;99.90;;;;;;5039840;28;20100;-62
2023/10/25 04:23:50;;;;;;;22.45;12.93;;;6.60;99.90;;;;;;5031972;28;20136;-60
2023/10/25 04:26:15;;;;;;;21.77;13.20;;;6.60;99.90;;;;;;5038662;28;20075;-60
2023/10/25 04:28:42;;;;;;;21.83;13.68;;;6.60;99.90;;;;;;5034595;28;20060;-60
2023/10/25 04:31:09;;;;;;;20.63;13.43;;;6.60;99.90;;;;;;5033361;28;20448;-61
2023/10/25 04:33:37;;;;;;;22.05;13.55;;;6.70;99.90;;;;;;5035369;28;20021;-61
2023/10/25 04:36:02;;;;;;;19.92;13.23;;;6.70;99.90;;;;;;5033401;28;20211;-59
2023/10/25 04:38:29;;;;;;;20.35;13.68;;;6.70;99.90;;;;;;5036528;28;20021;-61
2023/10/25 04:40:55;;;;;;;22.45;14.25;;;6.70;99.90;;;;;;5030942;28;20393;-60
2023/10/25 04:43:21;;;;;;;21.70;13.60;;;6.70;99.90;;;;;;5037428;28;20017;-61
2023/10/25 04:45:47;;;;;;;22.67;13.30;;;6.70;99.90;;;;;;5034595;28;20025;-61
2023/10/25 04:48:13;;;;;;;21.23;13.73;;;6.70;99.90;;;;;;5032392;28;20535;-59
2023/10/25 04:50:39;;;;;;;21.77;14.07;;;6.80;99.90;;;;;;5036589;28;20025;-60
2023/10/25 04:53:05;;;;;;;21.20;12.63;;;6.80;99.90;;;;;;5032354;28;20037;-61
2023/10/25 04:55:34;;;;;;;21.95;13.70;;;6.80;99.90;;;;;;5029763;28;20110;-61
2023/10/25 04:58:00;;;;;;;23.98;14.02;;;6.70;99.90;;;;;;5031633;28;20049;-60
2023/10/25 05:00:27;;;;;;;21.00;12.35;;;6.70;99.90;;;;;;5034563;28;20442;-61
2023/10/25 05:02:52;;;;;;;19.85;12.45;;;6.70;99.90;;;;;;5033794;28;20027;-61
2023/10/25 05:05:18;;;;;;;18.63;11.73;;;6.70;99.90;;;;;;5031320;28;20108;-61
2023/10/25 05:07:44;;;;;;;21.00;11.65;;;6.70;99.90;;;;;;5035576;28;20021;-59
2023/10/25 05:10:12;;;;;;;20.45;12.63;;;6.60;99.90;;;;;;5025742;28;20028;-59
2023/10/25 05:12:38;;;;;;;18.95;12.00;;;6.60;99.90;;;;;;5027817;28;20028;-60
2023/10/25 05:15:05;;;;;;;18.40;12.13;;;6.60;99.90;;;;;;5032734;28;20040;-60
2023/10/25 05:17:31;;;;;;;16.17;11.98;;;6.50;99.90;;;;;;5030340;28;20021;-60
2023/10/25 05:19:57;;;;;;;19.83;12.77;;;6.60;99.90;;;;;;5030704;28;20536;-60
2023/10/25 05:22:26;;;;;;;19.90;11.90;;;6.50;99.90;;;;;;5025102;28;20088;-60
2023/10/25 05:24:52;;;;;;;19.40;11.80;;;6.50;99.90;;;;;;5027171;28;20053;-60
2023/10/25 05:27:18;;;;;;;16.98;11.00;;;6.50;99.90;;;;;;5036988;28;20572;-58
2023/10/25 05:29:44;;;;;;;21.48;12.05;;;6.50;99.90;;;;;;5025851;28;20092;-61
2023/10/25 05:32:14;;;;;;;23.40;13.43;;;6.50;99.90;;;;;;5034049;28;20590;-61
2023/10/25 05:34:40;;;;;;;16.58;12.02;;;6.40;99.90;;;;;;5025380;28;20023;-59
2023/10/25 05:37:06;;;;;;;19.98;12.63;;;6.40;99.90;;;;;;5027668;28;20037;-61
2023/10/25 05:39:32;;;;;;;18.95;11.98;;;6.50;99.90;;;;;;5032229;28;20025;-61
2023/10/25 05:42:04;;;;;;;21.08;12.68;;;6.40;99.90;;;;;;5034048;28;20036;-61
2023/10/25 05:44:30;;;;;;;22.40;12.55;;;6.40;99.90;;;;;;5030636;28;20021;-61
2023/10/25 05:46:56;;;;;;;20.33;12.68;;;6.40;99.90;;;;;;5034127;28;20033;-61
2023/10/25 05:49:22;;;;;;;19.42;11.65;;;6.40;99.90;;;;;;5035799;28;20512;-60
2023/10/25 05:51:48;;;;;;;18.33;11.45;;;6.40;99.90;;;;;;5028238;28;20037;-61
2023/10/25 05:54:14;;;;;;;20.80;12.98;;;6.40;99.90;;;;;;5035950;28;20049;-61
2023/10/25 05:56:40;;;;;;;22.30;12.65;;;6.50;99.90;;;;;;5032745;28;20402;-61
2023/10/25 05:59:06;;;;;;;20.30;12.93;;;6.50;99.90;;;;;;5034023;28;20037;-61
2023/10/25 06:01:54;;;;;;;19.77;12.30;;;6.50;99.90;;;;;;5030240;28;20401;-61
2023/10/25 06:04:23;;;;;;;19.05;12.15;;;6.50;99.90;;;;;;5033832;28;20078;-61
2023/10/25 06:06:49;;;;;;;14.65;10.88;;;6.50;99.90;;;;;;5031992;28;20451;-60
2023/10/25 06:09:15;;;;;;;19.88;12.27;;;6.60;99.90;;;;;;5031348;28;20109;-60
2023/10/25 06:11:41;;;;;;;17.00;11.88;;;6.50;99.90;;;;;;5030574;28;20025;-61
2023/10/25 06:14:08;;;;;;;19.88;10.35;;;6.60;99.90;;;;;;5027471;28;20051;-60
2023/10/25 06:16:33;;;;;;;17.85;11.25;;;6.50;99.90;;;;;;5035671;28;20021;-60
2023/10/25 06:19:00;;;;;;;16.77;11.82;;;6.60;99.90;;;;;;5028252;28;20029;-61
2023/10/25 06:21:25;;;;;;;15.85;11.05;;;6.60;99.90;;;;;;5035014;28;20493;-61
2023/10/25 06:23:51;;;;;;;17.05;10.75;;;6.60;99.90;;;;;;5029174;28;20026;-61
2023/10/25 06:26:17;;;;;;;15.32;11.05;;;6.60;99.90;;;;;;5033543;28;20037;-61
2023/10/25 06:28:43;;;;;;;15.82;11.07;;;6.60;99.90;;;;;;5026120;28;20025;-60
2023/10/25 06:31:14;;;;;;;14.80;10.65;;;6.60;99.90;;;;;;5027234;28;20032;-61
2023/10/25 06:33:41;;;;;;;16.23;11.02;;;6.60;99.90;;;;;;5032685;28;20048;-60
2023/10/25 06:36:07;;;;;;;15.90;11.50;;;6.70;99.90;;;;;;5026373;28;20116;-61
2023/10/25 06:38:33;;;;;;;17.10;10.77;;;6.70;99.90;;;;;;5026851;28;20033;-61
2023/10/25 06:40:59;;;;;;;19.15;11.88;;;6.70;99.90;;;;;;5028703;28;20021;-59
2023/10/25 06:43:25;;;;;;;16.80;11.40;;;6.70;99.90;;;;;;5028021;28;20086;-61
2023/10/25 06:45:51;;;;;;;17.88;11.50;;;6.70;99.90;;;;;;5027002;28;20037;-59
2023/10/25 06:48:17;;;;;;;17.00;10.93;;;6.70;99.90;;;;;;5035467;28;20033;-57
2023/10/25 06:50:45;;;;;;;19.10;12.15;;;6.80;99.90;;;;;;5035336;28;20025;-61
2023/10/25 06:53:11;;;;;;;20.70;12.30;;;6.80;99.90;;;;;;5033146;28;20091;-61
2023/10/25 06:55:37;;;;;;;17.33;11.70;;;6.80;99.90;;;;;;5037079;28;20481;-59
2023/10/25 06:58:03;;;;;;;17.02;11.35;;;6.80;99.90;;;;;;5032688;28;20502;-61
2023/10/25 07:00:28;;;;;;;16.92;11.43;;;6.80;99.90;;;;;;5035738;28;20066;-61
2023/10/25 07:03:01;;;;;;;17.83;10.52;;;6.90;99.90;;;;;;5033496;28;20029;-58
2023/10/25 07:05:27;;;;;;;16.77;11.32;;;6.90;99.90;;;;;;5033527;28;20028;-60
2023/10/25 07:07:53;;;;;;;21.45;11.88;;;6.90;99.90;;;;;;5034056;28;20033;-60
2023/10/25 07:10:20;;;;;;;18.02;12.43;;;6.90;99.90;;;;;;5023316;28;20034;-61
2023/10/25 07:12:46;;;;;;;20.15;11.35;;;7.00;99.90;;;;;;5033687;28;20032;-60
2023/10/25 07:15:12;;;;;;;18.73;12.43;;;7.00;99.90;;;;;;5032988;28;20152;-61
2023/10/25 07:17:38;;;;;;;22.48;13.48;;;7.00;99.90;;;;;;5033683;28;20100;-59
2023/10/25 07:20:09;;;;;;;18.92;12.05;;;7.00;99.90;;;;;;5026699;28;20503;-59
2023/10/25 07:22:35;;;;;;;19.17;11.95;;;7.10;99.90;;;;;;5034005;28;20018;-60
2023/10/25 07:25:01;;;;;;;21.35;13.75;;;7.10;99.90;;;;;;5034443;28;20035;-60
2023/10/25 07:27:27;;;;;;;22.40;13.45;;;7.10;99.90;;;;;;5035919;28;20121;-58
2023/10/25 07:29:52;;;;;;;25.27;14.90;;;7.10;99.90;;;;;;5032989;28;20525;-63
2023/10/25 07:32:18;;;;;;;26.02;13.93;;;7.10;99.90;;;;;;5031573;28;20060;-60
2023/10/25 07:34:43;;;;;;;22.55;13.68;;;7.20;99.90;;;;;;5031106;28;20022;-61
2023/10/25 07:37:09;;;;;;;22.45;14.65;;;7.20;99.90;;;;;;5030710;28;20039;-61
2023/10/25 07:39:35;;;;;;;26.05;13.82;;;7.20;99.90;;;;;;5025808;28;20117;-61
2023/10/25 07:42:01;;;;;;;22.67;13.88;;;7.20;99.90;;;;;;5023393;28;20033;-61
2023/10/25 07:44:27;;;;;;;26.80;13.98;;;7.30;99.90;;;;;;5027743;28;20472;-61
2023/10/25 07:46:53;;;;;;;22.40;13.43;;;7.30;99.90;;;;;;5025938;28;20033;-60
2023/10/25 07:49:19;;;;;;;20.17;13.48;;;7.30;99.90;;;;;;5030448;28;20390;-61
2023/10/25 07:51:44;;;;;;;20.48;13.50;;;7.40;99.90;;;;;;5028770;28;20032;-61
2023/10/25 07:54:10;;;;;;;18.90;12.68;;;7.40;99.90;;;;;;5034259;28;20113;-60
2023/10/25 07:56:36;;;;;;;21.35;12.65;;;7.40;99.90;;;;;;5031450;28;20873;-60
2023/10/25 07:59:01;;;;;;;23.92;13.02;;;7.50;99.90;;;;;;5031609;28;20117;-60
2023/10/25 08:01:27;;;;;;;21.40;13.57;;;7.50;99.90;;;;;;5035140;28;20021;-61
2023/10/25 08:03:53;;;;;;;18.73;11.90;;;7.60;99.90;;;;;;5027939;28;20481;-60
2023/10/25 08:06:18;;;;;;;22.13;12.50;;;7.60;99.90;;;;;;5026927;28;20036;-60
2023/10/25 08:08:44;;;;;;;22.35;13.35;;;7.70;99.90;;;;;;5027984;28;20040;-60
2023/10/25 08:11:11;;;;;;;18.80;12.40;;;7.70;99.90;;;;;;5032956;28;20073;-61
2023/10/25 08:13:42;;;;;;;23.67;13.73;;;7.80;99.90;;;;;;5030803;28;20079;-61
2023/10/25 08:16:08;;;;;;;19.67;13.20;;;7.80;99.90;;;;;;5027190;28;20037;-60
2023/10/25 08:18:35;;;;;;;23.20;12.82;;;7.90;99.90;;;;;;5030044;28;20106;-60
2023/10/25 08:21:01;;;;;;;20.38;13.00;;;7.90;99.90;;;;;;5028789;28;20505;-59
2023/10/25 08:23:26;;;;;;;21.00;12.55;;;8.00;99.90;;;;;;5032658;28;20401;-61
2023/10/25 08:25:52;;;;;;;21.60;12.85;;;8.00;99.90;;;;;;5032682;28;20048;-60
2023/10/25 08:28:18;;;;;;;22.15;12.57;;;8.10;99.90;;;;;;5028860;28;20037;-61
2023/10/25 08:30:44;;;;;;;17.73;12.40;;;8.20;99.90;;;;;;5024698;28;20083;-59
2023/10/25 08:33:10;;;;;;;18.60;11.77;;;8.20;99.90;;;;;;5029336;28;20505;-60
2023/10/25 08:35:37;;;;;;;21.80;12.68;;;8.30;99.90;;;;;;5028919;28;20029;-61
2023/10/25 08:38:04;;;;;;;19.00;12.15;;;8.40;99.90;;;;;;5031735;28;20029;-60
2023/10/25 08:40:33;;;;;;;18.55;12.15;;;8.40;99.90;;;;;;5032550;28;20023;-60
2023/10/25 08:42:59;;;;;;;28.15;11.95;;;8.50;99.90;;;;;;5029128;28;20064;-60
2023/10/25 08:45:26;;;;;;;19.20;11.05;;;8.50;99.90;;;;;;5032484;28;20073;-61
2023/10/25 08:47:53;;;;;;;19.83;12.50;;;8.60;99.90;;;;;;5024937;28;20037;-61
2023/10/25 08:50:22;;;;;;;19.40;11.15;;;8.60;99.90;;;;;;5026745;28;20041;-61
2023/10/25 08:52:51;;;;;;;20.63;11.98;;;8.70;99.90;;;;;;5030258;28;20021;-61
2023/10/25 08:55:20;;;;;;;18.05;11.00;;;8.70;99.90;;;;;;5030295;28;20079;-62
2023/10/25 08:57:48;;;;;;;19.42;11.38;;;8.80;99.90;;;;;;5030145;28;20033;-60
2023/10/25 09:00:14;;;;;;;19.17;10.98;;;8.90;99.90;;;;;;5027324;28;20029;-61
2023/10/25 09:02:39;;;;;;;19.02;11.20;;;8.90;99.90;;;;;;5031472;28;20032;-61
2023/10/25 09:05:08;;;;;;;22.02;10.90;;;9.00;99.90;;;;;;5031648;28;20112;-59
2023/10/25 09:07:36;;;;;;;18.70;10.35;;;9.00;99.90;;;;;;5026590;28;20033;-61
2023/10/25 09:10:03;;;;;;;17.45;11.65;;;9.10;99.90;;;;;;5030993;28;20029;-61
2023/10/25 09:12:29;;;;;;;16.50;10.48;;;9.10;99.90;;;;;;5033548;28;20025;-61
2023/10/25 09:14:55;;;;;;;14.90;10.85;;;9.20;99.90;;;;;;5025581;28;20123;-61
2023/10/25 09:17:21;;;;;;;15.95;10.65;;;9.20;99.90;;;;;;5030567;28;20497;-61
2023/10/25 09:19:50;;;;;;;17.13;11.07;;;9.30;99.90;;;;;;5028425;28;20033;-61
2023/10/25 09:22:27;;;;;;;16.25;10.32;;;9.30;99.90;;;;;;5031353;28;20072;-60
2023/10/25 09:24:54;;;;;;;22.83;11.85;;;9.40;99.90;;;;;;5028782;28;20824;-60
2023/10/25 09:27:21;;;;;;;17.20;10.15;;;9.40;99.90;;;;;;5029753;28;20563;-61
2023/10/25 09:29:47;;;;;;;17.95;10.05;;;9.50;99.90;;;;;;5031219;28;20025;-61
2023/10/25 09:32:20;;;;;;;16.20;9.95;;;9.50;99.90;;;;;;5061691;28;20379;-60
2023/10/25 09:34:50;;;;;;;17.38;9.82;;;9.60;99.90;;;;;;5047703;28;20119;-57
2023/10/25 09:37:15;;;;;;;14.10;10.13;;;9.60;99.90;;;;;;5048592;28;20112;-59
2023/10/25 09:39:41;;;;;;;16.02;9.82;;;9.60;99.90;;;;;;5046099;28;20651;-58
2023/10/25 09:42:13;;;;;;;13.00;9.18;;;9.60;99.90;;;;;;5040988;28;20430;-58
2023/10/25 09:44:47;;;;;;;14.75;8.15;;;9.70;99.90;;;;;;5045587;28;20061;-59
2023/10/25 09:47:15;;;;;;;16.48;8.57;;;9.80;99.90;;;;;;5043731;28;20204;-60
2023/10/25 09:49:43;;;;;;;12.85;8.13;;;9.80;99.90;;;;;;5045907;28;20103;-58
2023/10/25 09:52:20;;;;;;;12.13;7.55;;;9.80;99.90;;;;;;5047005;28;20033;-55
2023/10/25 09:54:57;;;;;;;9.77;7.70;;;9.90;99.90;;;;;;5044183;28;20017;-57
2023/10/25 09:57:28;;;;;;;12.60;7.80;;;9.90;99.90;;;;;;5046557;28;20032;-58
2023/10/25 09:59:56;;;;;;;11.52;7.45;;;10.00;99.90;;;;;;5046370;28;20017;-58
2023/10/25 10:02:51;;;;;;;14.05;7.78;;;10.00;99.90;;;;;;5043872;28;20021;-58
2023/10/25 10:05:34;;;;;;;11.02;6.35;;;10.10;99.90;;;;;;5046309;28;20112;-60
2023/10/25 10:08:13;;;;;;;11.32;6.80;;;10.10;99.90;;;;;;5045331;28;20078;-61
2023/10/25 10:10:55;;;;;;;14.05;8.23;;;10.20;99.90;;;;;;5040067;28;20017;-61
2023/10/25 10:13:22;;;;;;;10.68;6.65;;;10.20;99.90;;;;;;5042222;28;20025;-60
2023/10/25 10:16:04;;;;;;;12.77;8.05;;;10.20;99.90;;;;;;5046504;28;20350;-61
2023/10/25 10:18:34;;;;;;;11.80;7.80;;;10.30;99.90;;;;;;5047868;28;20071;-60
2023/10/25 10:21:01;;;;;;;10.93;7.90;;;10.30;99.90;;;;;;5045326;28;20017;-61
2023/10/25 10:23:39;;;;;;;9.88;7.22;;;10.30;99.90;;;;;;5048170;28;20424;-61
2023/10/25 10:26:08;;;;;;;13.40;6.70;;;10.30;99.90;;;;;;5045129;28;20031;-60
2023/10/25 10:28:46;;;;;;;11.02;6.15;;;10.40;99.90;;;;;;5042092;28;20071;-61
2023/10/25 10:31:13;;;;;;;7.85;6.32;;;10.40;99.90;;;;;;5044649;28;20493;-60
2023/10/25 10:33:43;;;;;;;10.50;7.15;;;10.50;99.90;;;;;;5047241;28;20021;-61
2023/10/25 10:36:10;;;;;;;10.98;6.88;;;10.50;99.90;;;;;;5045717;28;20495;-60
2023/10/25 10:39:14;;;;;;;8.80;6.22;;;10.60;99.90;;;;;;5041740;28;20084;-59
2023/10/25 10:41:41;;;;;;;9.70;6.25;;;10.60;99.90;;;;;;5040071;28;20059;-58
2023/10/25 10:44:08;;;;;;;7.65;5.68;;;10.60;99.90;;;;;;5030119;28;20557;-60
2023/10/25 10:46:41;;;;;;;7.10;5.63;;;10.70;99.90;;;;;;5032455;28;20103;-59
2023/10/25 10:49:11;;;;;;;9.85;5.47;;;10.70;99.90;;;;;;5029148;28;20027;-61
2023/10/25 10:51:37;;;;;;;8.73;4.35;;;10.70;99.90;;;;;;5029959;28;20508;-61
2023/10/25 10:54:03;;;;;;;5.65;4.45;;;10.70;99.90;;;;;;5031157;28;20028;-60
2023/10/25 10:56:28;;;;;;;6.70;5.35;;;10.70;99.90;;;;;;5034583;28;20045;-59
2023/10/25 10:58:54;;;;;;;5.57;4.30;;;10.80;99.90;;;;;;5031283;28;20432;-61
2023/10/25 11:01:19;;;;;;;6.78;4.47;;;10.80;99.90;;;;;;5032209;28;20493;-60
2023/10/25 11:03:45;;;;;;;7.50;4.75;;;10.80;99.90;;;;;;5030402;28;20029;-61
2023/10/25 11:06:11;;;;;;;8.68;4.65;;;10.90;99.90;;;;;;5026094;28;20030;-60
2023/10/25 11:08:36;;;;;;;5.85;3.72;;;10.90;99.90;;;;;;5032991;28;20400;-58
2023/10/25 11:11:02;;;;;;;5.68;3.90;;;10.90;99.90;;;;;;5031355;28;20021;-59
2023/10/25 11:13:28;;;;;;;5.47;3.95;;;11.00;99.90;;;;;;5030722;28;20441;-61
2023/10/25 11:16:01;;;;;;;7.18;5.05;;;11.00;99.90;;;;;;5031015;28;20021;-62
2023/10/25 11:18:27;;;;;;;6.05;3.88;;;11.00;99.90;;;;;;5029479;28;20025;-60
2023/10/25 11:20:52;;;;;;;7.47;3.65;;;11.10;99.90;;;;;;5029763;28;20059;-59
2023/10/25 11:23:19;;;;;;;6.07;3.40;;;11.10;99.90;;;;;;5031784;28;20034;-60
2023/10/25 11:25:45;;;;;;;4.10;3.38;;;11.20;99.90;;;;;;5032092;28;20485;-59
2023/10/25 11:28:11;;;;;;;4.60;3.08;;;11.20;99.90;;;;;;5028749;28;20045;-61
2023/10/25 11:30:38;;;;;;;4.80;3.15;;;11.30;99.90;;;;;;5032622;28;20498;-57
2023/10/25 11:33:04;;;;;;;4.57;3.63;;;11.30;99.90;;;;;;5024835;28;20022;-60
2023/10/25 11:35:30;;;;;;;5.55;2.90;;;11.40;99.90;;;;;;5031625;28;20037;-61
2023/10/25 11:37:58;;;;;;;4.15;2.75;;;11.40;99.90;;;;;;5030384;28;20025;-61
2023/10/25 11:40:47;;;;;;;5.97;2.97;;;11.50;99.90;;;;;;5031938;28;20108;-60
2023/10/25 11:43:13;;;;;;;4.53;2.67;;;11.50;99.90;;;;;;5029630;28;20681;-58
2023/10/25 11:45:40;;;;;;;4.03;2.42;;;11.50;99.90;;;;;;5023135;28;20044;-60
2023/10/25 11:48:07;;;;;;;5.63;2.40;;;11.60;99.90;;;;;;5030148;28;20014;-60
2023/10/25 11:50:33;;;;;;;7.78;2.92;;;11.60;99.90;;;;;;5028547;28;20021;-57
2023/10/25 11:52:59;;;;;;;3.17;2.10;;;11.70;99.90;;;;;;5030768;28;20433;-61
2023/10/25 11:55:27;;;;;;;4.28;1.92;;;11.70;99.90;;;;;;5029357;28;20026;-60
2023/10/25 11:57:53;;;;;;;3.75;2.28;;;11.80;99.90;;;;;;5031101;28;20473;-59
2023/10/25 12:00:18;;;;;;;2.08;1.70;;;11.90;99.90;;;;;;5027127;28;20026;-60
2023/10/25 12:02:44;;;;;;;5.00;1.70;;;11.90;99.90;;;;;;5029476;28;20472;-58
2023/10/25 12:05:11;;;;;;;5.35;1.85;;;12.00;99.90;;;;;;5029946;28;20056;-59
2023/10/25 12:07:37;;;;;;;7.45;1.63;;;12.10;99.90;;;;;;5030621;28;20021;-59
2023/10/25 12:10:04;;;;;;;4.50;1.27;;;12.20;99.90;;;;;;5029532;28;20105;-60
2023/10/25 12:12:30;;;;;;;2.28;1.40;;;12.20;99.90;;;;;;5029324;28;20028;-60
2023/10/25 12:14:56;;;;;;;3.70;1.10;;;12.30;99.90;;;;;;5029480;28;20163;-58
2023/10/25 12:17:24;;;;;;;6.55;1.52;;;12.40;99.90;;;;;;5028767;28;20029;-59
2023/10/25 12:19:51;;;;;;;4.53;1.30;;;12.40;99.90;;;;;;5028260;28;20113;-59
2023/10/25 12:22:18;;;;;;;4.85;1.48;;;12.50;99.90;;;;;;5035489;28;20034;-60
2023/10/25 12:24:46;;;;;;;3.72;1.40;;;12.50;99.90;;;;;;5026780;28;20389;-60
2023/10/25 12:27:12;;;;;;;5.88;1.45;;;12.60;99.90;;;;;;5021115;28;20026;-59
2023/10/25 12:29:38;;;;;;;4.53;1.40;;;12.60;99.90;;;;;;5028642;28;20165;-60
2023/10/25 12:32:03;;;;;;;3.72;1.90;;;12.70;99.90;;;;;;5028567;28;20577;-58
2023/10/25 12:34:30;;;;;;;5.05;1.67;;;12.70;99.90;;;;;;5029547;28;20104;-56
2023/10/25 12:36:55;;;;;;;2.78;1.10;;;12.70;99.90;;;;;;5028173;28;20120;-60
2023/10/25 12:39:21;;;;;;;4.05;1.52;;;12.70;99.90;;;;;;5028926;28;20557;-60
2023/10/25 12:41:47;;;;;;;3.05;1.65;;;12.70;99.90;;;;;;5029789;28;20463;-59